sensor_id;sensor_type;location;lat;lon;timestamp;pressure;altitude;pressure_sealevel;temperature;humidity
26531;BME280;14201;43.188;24.160;2023-02-15T00:01:31;101093.03;;;0.83;75.53
26531;BME280;14201;43.188;24.160;2023-02-15T00:03:57;101099.00;;;0.74;75.61
26531;BME280;14201;43.188;24.160;2023-02-15T00:06:22;101102.19;;;0.72;76.66
26531;BME280;14201;43.188;24.160;2023-02-15T00:08:48;101096.28;;;0.73;75.41
26531;BME280;14201;43.188;24.160;2023-02-15T00:11:14;101098.25;;;0.75;75.96
26531;BME280;14201;43.188;24.160;2023-02-15T00:13:40;101084.34;;;0.73;76.08
26531;BME280;14201;43.188;24.160;2023-02-15T00:16:09;101086.47;;;0.69;75.61
26531;BME280;14201;43.188;24.160;2023-02-15T00:18:35;101087.06;;;0.66;74.79
26531;BME280;14201;43.188;24.160;2023-02-15T00:21:07;101085.22;;;0.65;74.21
26531;BME280;14201;43.188;24.160;2023-02-15T00:23:33;101082.03;;;0.59;73.86
26531;BME280;14201;43.188;24.160;2023-02-15T00:26:09;101078.81;;;0.53;74.60
26531;BME280;14201;43.188;24.160;2023-02-15T00:28:35;101091.72;;;0.46;74.18
26531;BME280;14201;43.188;24.160;2023-02-15T00:31:07;101093.94;;;0.43;75.14
26531;BME280;14201;43.188;24.160;2023-02-15T00:33:33;101100.09;;;0.36;75.67
26531;BME280;14201;43.188;24.160;2023-02-15T00:35:59;101097.16;;;0.24;76.58
26531;BME280;14201;43.188;24.160;2023-02-15T00:38:26;101101.00;;;0.36;76.67
26531;BME280;14201;43.188;24.160;2023-02-15T00:40:54;101097.38;;;0.34;76.28
26531;BME280;14201;43.188;24.160;2023-02-15T00:43:20;101101.94;;;0.37;76.24
26531;BME280;14201;43.188;24.160;2023-02-15T00:45:46;101092.06;;;0.33;76.42
26531;BME280;14201;43.188;24.160;2023-02-15T00:48:11;101099.50;;;0.38;76.29
26531;BME280;14201;43.188;24.160;2023-02-15T00:50:37;101103.97;;;0.32;76.49
26531;BME280;14201;43.188;24.160;2023-02-15T00:53:02;101100.78;;;0.26;77.03
26531;BME280;14201;43.188;24.160;2023-02-15T00:55:27;101101.84;;;0.28;77.49
26531;BME280;14201;43.188;24.160;2023-02-15T00:57:53;101093.44;;;0.29;76.93
26531;BME280;14201;43.188;24.160;2023-02-15T01:00:18;101105.44;;;0.22;76.44
26531;BME280;14201;43.188;24.160;2023-02-15T01:02:44;101102.84;;;0.22;76.41
26531;BME280;14201;43.188;24.160;2023-02-15T01:05:09;101107.22;;;0.23;75.61
26531;BME280;14201;43.188;24.160;2023-02-15T01:07:34;101100.56;;;0.16;76.41
26531;BME280;14201;43.188;24.160;2023-02-15T01:10:00;101100.94;;;0.28;76.55
26531;BME280;14201;43.188;24.160;2023-02-15T01:12:25;101104.91;;;0.17;76.14
26531;BME280;14201;43.188;24.160;2023-02-15T01:14:51;101103.78;;;0.06;76.74
26531;BME280;14201;43.188;24.160;2023-02-15T01:17:16;101101.78;;;0.19;75.07
26531;BME280;14201;43.188;24.160;2023-02-15T01:19:41;101098.97;;;0.09;76.09
26531;BME280;14201;43.188;24.160;2023-02-15T01:22:07;101106.25;;;-0.03;77.00
26531;BME280;14201;43.188;24.160;2023-02-15T01:24:32;101088.66;;;0.01;76.97
26531;BME280;14201;43.188;24.160;2023-02-15T01:26:58;101088.66;;;0.01;77.00
26531;BME280;14201;43.188;24.160;2023-02-15T01:29:23;101093.84;;;-0.07;77.34
26531;BME280;14201;43.188;24.160;2023-02-15T01:31:48;101086.81;;;-0.01;78.10
26531;BME280;14201;43.188;24.160;2023-02-15T01:34:14;101089.50;;;-0.08;78.21
26531;BME280;14201;43.188;24.160;2023-02-15T01:36:39;101086.94;;;-0.08;79.20
26531;BME280;14201;43.188;24.160;2023-02-15T01:39:05;101086.81;;;-0.01;79.45
26531;BME280;14201;43.188;24.160;2023-02-15T01:41:30;101084.19;;;-0.09;79.00
26531;BME280;14201;43.188;24.160;2023-02-15T01:43:57;101078.06;;;-0.03;79.13
26531;BME280;14201;43.188;24.160;2023-02-15T01:46:27;101077.00;;;-0.21;78.51
26531;BME280;14201;43.188;24.160;2023-02-15T01:49:02;101074.38;;;-0.13;77.82
26531;BME280;14201;43.188;24.160;2023-02-15T01:51:31;101073.69;;;-0.20;78.46
26531;BME280;14201;43.188;24.160;2023-02-15T01:54:02;101068.75;;;-0.18;79.40
26531;BME280;14201;43.188;24.160;2023-02-15T01:56:31;101069.50;;;-0.19;79.79
26531;BME280;14201;43.188;24.160;2023-02-15T01:58:59;101071.53;;;-0.24;80.04
26531;BME280;14201;43.188;24.160;2023-02-15T02:04:09;101077.19;;;-0.35;80.19
26531;BME280;14201;43.188;24.160;2023-02-15T02:06:36;101080.88;;;-0.40;80.35
26531;BME280;14201;43.188;24.160;2023-02-15T02:09:03;101077.19;;;-0.35;80.27
26531;BME280;14201;43.188;24.160;2023-02-15T02:11:29;101093.91;;;-0.46;80.72
26531;BME280;14201;43.188;24.160;2023-02-15T02:13:54;101079.22;;;-0.40;80.97
26531;BME280;14201;43.188;24.160;2023-02-15T02:16:25;101084.09;;;-0.34;80.65
26531;BME280;14201;43.188;24.160;2023-02-15T02:21:27;101084.59;;;-0.29;79.98
26531;BME280;14201;43.188;24.160;2023-02-15T02:29:07;101079.41;;;-0.22;79.58
26531;BME280;14201;43.188;24.160;2023-02-15T02:34:27;101078.97;;;-0.34;79.28
26531;BME280;14201;43.188;24.160;2023-02-15T02:44:30;101085.16;;;-0.64;81.30
26531;BME280;14201;43.188;24.160;2023-02-15T02:49:31;101076.91;;;-1.07;84.54
26531;BME280;14201;43.188;24.160;2023-02-15T02:52:01;101068.84;;;-1.03;84.34
26531;BME280;14201;43.188;24.160;2023-02-15T02:54:27;101076.81;;;-0.93;84.62
26531;BME280;14201;43.188;24.160;2023-02-15T02:56:53;101083.50;;;-1.09;85.63
26531;BME280;14201;43.188;24.160;2023-02-15T02:59:21;101071.56;;;-1.25;86.63
26531;BME280;14201;43.188;24.160;2023-02-15T03:01:55;101072.38;;;-1.10;85.76
26531;BME280;14201;43.188;24.160;2023-02-15T03:04:25;101073.25;;;-1.02;85.50
26531;BME280;14201;43.188;24.160;2023-02-15T03:06:57;101073.09;;;-0.88;85.57
26531;BME280;14201;43.188;24.160;2023-02-15T03:11:48;101080.97;;;-0.70;85.95
26531;BME280;14201;43.188;24.160;2023-02-15T03:14:14;101078.59;;;-0.69;85.76
26531;BME280;14201;43.188;24.160;2023-02-15T03:16:41;101082.59;;;-0.87;86.56
26531;BME280;14201;43.188;24.160;2023-02-15T03:19:09;101092.16;;;-0.93;85.99
26531;BME280;14201;43.188;24.160;2023-02-15T03:21:38;101085.81;;;-0.96;84.26
26531;BME280;14201;43.188;24.160;2023-02-15T03:24:15;101090.34;;;-0.94;83.60
26531;BME280;14201;43.188;24.160;2023-02-15T03:26:42;101100.91;;;-0.91;83.61
26531;BME280;14201;43.188;24.160;2023-02-15T03:29:09;101099.09;;;-0.92;83.49
26531;BME280;14201;43.188;24.160;2023-02-15T03:31:36;101108.13;;;-1.03;84.00
26531;BME280;14201;43.188;24.160;2023-02-15T03:34:03;101106.25;;;-0.96;83.82
26531;BME280;14201;43.188;24.160;2023-02-15T03:36:44;101109.97;;;-0.86;82.35
26531;BME280;14201;43.188;24.160;2023-02-15T03:39:18;101105.69;;;-0.94;82.49
26531;BME280;14201;43.188;24.160;2023-02-15T03:41:48;101109.94;;;-0.78;82.49
26531;BME280;14201;43.188;24.160;2023-02-15T03:44:24;101112.53;;;-0.86;82.75
26531;BME280;14201;43.188;24.160;2023-02-15T03:46:56;101109.09;;;-0.86;82.40
26531;BME280;14201;43.188;24.160;2023-02-15T03:49:25;101112.22;;;-0.89;82.96
26531;BME280;14201;43.188;24.160;2023-02-15T03:51:54;101114.69;;;-0.82;84.07
26531;BME280;14201;43.188;24.160;2023-02-15T03:54:25;101117.75;;;-0.93;84.48
26531;BME280;14201;43.188;24.160;2023-02-15T03:57:10;101129.75;;;-0.92;84.52
26531;BME280;14201;43.188;24.160;2023-02-15T03:59:55;101119.09;;;-0.81;83.42
26531;BME280;14201;43.188;24.160;2023-02-15T04:05:19;101135.28;;;-0.96;82.03
26531;BME280;14201;43.188;24.160;2023-02-15T04:07:45;101133.75;;;-0.87;81.41
26531;BME280;14201;43.188;24.160;2023-02-15T04:10:10;101135.97;;;-0.90;81.28
26531;BME280;14201;43.188;24.160;2023-02-15T04:12:54;101143.63;;;-0.90;80.94
26531;BME280;14201;43.188;24.160;2023-02-15T04:15:19;101141.88;;;-0.98;81.55
26531;BME280;14201;43.188;24.160;2023-02-15T04:18:03;101145.50;;;-0.96;81.10
26531;BME280;14201;43.188;24.160;2023-02-15T04:20:29;101149.59;;;-1.05;80.62
26531;BME280;14201;43.188;24.160;2023-02-15T04:23:13;101145.44;;;-1.12;81.00
26531;BME280;14201;43.188;24.160;2023-02-15T04:25:56;101149.41;;;-1.07;81.19
26531;BME280;14201;43.188;24.160;2023-02-15T04:28:22;101145.22;;;-1.06;81.51
26531;BME280;14201;43.188;24.160;2023-02-15T04:30:47;101150.81;;;-0.94;81.30
26531;BME280;14201;43.188;24.160;2023-02-15T04:33:13;101158.03;;;-1.13;81.87
26531;BME280;14201;43.188;24.160;2023-02-15T04:35:38;101154.41;;;-1.15;82.21
26531;BME280;14201;43.188;24.160;2023-02-15T04:38:04;101162.44;;;-1.12;82.09
26531;BME280;14201;43.188;24.160;2023-02-15T04:40:29;101148.53;;;-1.14;81.96
26531;BME280;14201;43.188;24.160;2023-02-15T04:42:54;101160.63;;;-1.21;81.47
26531;BME280;14201;43.188;24.160;2023-02-15T04:45:20;101156.28;;;-1.22;81.21
26531;BME280;14201;43.188;24.160;2023-02-15T04:47:45;101151.88;;;-1.23;81.47
26531;BME280;14201;43.188;24.160;2023-02-15T04:50:11;101161.28;;;-1.07;81.03
26531;BME280;14201;43.188;24.160;2023-02-15T04:52:36;101160.22;;;-1.09;80.30
26531;BME280;14201;43.188;24.160;2023-02-15T04:55:02;101155.66;;;-1.12;80.02
26531;BME280;14201;43.188;24.160;2023-02-15T04:57:27;101162.31;;;-1.28;80.65
26531;BME280;14201;43.188;24.160;2023-02-15T04:59:53;101153.97;;;-1.34;81.12
26531;BME280;14201;43.188;24.160;2023-02-15T05:02:18;101165.81;;;-1.28;80.61
26531;BME280;14201;43.188;24.160;2023-02-15T05:04:43;101163.69;;;-1.39;80.92
26531;BME280;14201;43.188;24.160;2023-02-15T05:07:09;101164.75;;;-1.37;80.05
26531;BME280;14201;43.188;24.160;2023-02-15T05:09:34;101169.09;;;-1.29;79.05
26531;BME280;14201;43.188;24.160;2023-02-15T05:12:00;101175.16;;;-1.35;79.35
26531;BME280;14201;43.188;24.160;2023-02-15T05:14:25;101177.31;;;-1.31;80.29
26531;BME280;14201;43.188;24.160;2023-02-15T05:16:51;101176.44;;;-1.39;80.19
26531;BME280;14201;43.188;24.160;2023-02-15T05:19:16;101178.63;;;-1.35;80.58
26531;BME280;14201;43.188;24.160;2023-02-15T05:21:42;101189.22;;;-1.39;81.31
26531;BME280;14201;43.188;24.160;2023-02-15T05:24:07;101192.16;;;-1.43;80.98
26531;BME280;14201;43.188;24.160;2023-02-15T05:26:53;101190.13;;;-1.39;80.95
26531;BME280;14201;43.188;24.160;2023-02-15T05:29:37;101193.38;;;-1.32;80.56
26531;BME280;14201;43.188;24.160;2023-02-15T05:32:03;101208.38;;;-1.35;80.27
26531;BME280;14201;43.188;24.160;2023-02-15T05:34:29;101204.00;;;-1.36;80.76
26531;BME280;14201;43.188;24.160;2023-02-15T05:36:54;101207.59;;;-1.27;80.16
26531;BME280;14201;43.188;24.160;2023-02-15T05:39:20;101205.22;;;-1.26;78.36
26531;BME280;14201;43.188;24.160;2023-02-15T05:41:45;101213.09;;;-1.31;78.41
26531;BME280;14201;43.188;24.160;2023-02-15T05:44:11;101209.59;;;-1.25;79.14
26531;BME280;14201;43.188;24.160;2023-02-15T05:46:36;101215.56;;;-1.17;79.68
26531;BME280;14201;43.188;24.160;2023-02-15T05:49:01;101221.44;;;-1.18;79.66
26531;BME280;14201;43.188;24.160;2023-02-15T05:51:27;101217.53;;;-1.07;79.41
26531;BME280;14201;43.188;24.160;2023-02-15T05:53:52;101216.06;;;-1.05;78.32
26531;BME280;14201;43.188;24.160;2023-02-15T05:56:18;101222.03;;;-0.97;79.41
26531;BME280;14201;43.188;24.160;2023-02-15T05:58:43;101214.81;;;-0.78;79.68
26531;BME280;14201;43.188;24.160;2023-02-15T06:01:12;101215.94;;;-0.61;79.91
26531;BME280;14201;43.188;24.160;2023-02-15T06:03:39;101220.88;;;-0.39;78.62
26531;BME280;14201;43.188;24.160;2023-02-15T06:06:04;101220.41;;;-0.44;78.47
26531;BME280;14201;43.188;24.160;2023-02-15T06:08:30;101225.97;;;-0.32;79.01
26531;BME280;14201;43.188;24.160;2023-02-15T06:10:56;101228.25;;;-0.19;78.96
26531;BME280;14201;43.188;24.160;2023-02-15T06:13:21;101226.84;;;-0.08;78.61
26531;BME280;14201;43.188;24.160;2023-02-15T06:15:47;101222.03;;;-0.21;79.13
26531;BME280;14201;43.188;24.160;2023-02-15T06:18:12;101230.66;;;-0.05;77.68
26531;BME280;14201;43.188;24.160;2023-02-15T06:20:38;101229.19;;;0.13;77.28
26531;BME280;14201;43.188;24.160;2023-02-15T06:23:03;101224.09;;;0.29;77.37
26531;BME280;14201;43.188;24.160;2023-02-15T06:25:28;101225.25;;;0.40;78.25
26531;BME280;14201;43.188;24.160;2023-02-15T06:27:54;101226.25;;;0.49;77.98
26531;BME280;14201;43.188;24.160;2023-02-15T06:30:19;101227.00;;;0.64;78.22
26531;BME280;14201;43.188;24.160;2023-02-15T06:32:45;101221.03;;;0.72;77.22
26531;BME280;14201;43.188;24.160;2023-02-15T06:35:10;101230.22;;;0.95;77.88
26531;BME280;14201;43.188;24.160;2023-02-15T06:37:36;101227.28;;;0.99;77.39
26531;BME280;14201;43.188;24.160;2023-02-15T06:40:02;101226.97;;;1.05;77.30
26531;BME280;14201;43.188;24.160;2023-02-15T06:42:29;101223.09;;;1.08;76.70
26531;BME280;14201;43.188;24.160;2023-02-15T06:44:55;101225.94;;;1.27;77.81
26531;BME280;14201;43.188;24.160;2023-02-15T06:47:20;101218.06;;;1.50;77.39
26531;BME280;14201;43.188;24.160;2023-02-15T06:49:45;101224.31;;;1.61;76.17
26531;BME280;14201;43.188;24.160;2023-02-15T06:52:11;101223.03;;;1.82;76.02
26531;BME280;14201;43.188;24.160;2023-02-15T06:54:36;101219.94;;;2.02;76.68
26531;BME280;14201;43.188;24.160;2023-02-15T06:57:02;101226.63;;;2.17;75.06
26531;BME280;14201;43.188;24.160;2023-02-15T06:59:27;101220.59;;;2.34;74.85
26531;BME280;14201;43.188;24.160;2023-02-15T07:01:53;101223.09;;;2.68;75.45
26531;BME280;14201;43.188;24.160;2023-02-15T07:04:18;101227.28;;;2.85;74.82
26531;BME280;14201;43.188;24.160;2023-02-15T07:06:44;101227.59;;;3.05;76.43
26531;BME280;14201;43.188;24.160;2023-02-15T07:09:10;101223.19;;;3.04;74.66
26531;BME280;14201;43.188;24.160;2023-02-15T07:11:35;101218.72;;;3.55;73.99
26531;BME280;14201;43.188;24.160;2023-02-15T07:54:17;101198.69;;;8.02;66.07
26531;BME280;14201;43.188;24.160;2023-02-15T07:56:42;101194.34;;;8.13;66.29
26531;BME280;14201;43.188;24.160;2023-02-15T07:59:08;101198.69;;;8.36;67.20
26531;BME280;14201;43.188;24.160;2023-02-15T08:01:35;101199.47;;;8.57;66.55
26531;BME280;14201;43.188;24.160;2023-02-15T08:04:03;101199.91;;;8.63;64.70
26531;BME280;14201;43.188;24.160;2023-02-15T08:06:34;101195.16;;;8.58;62.88
26531;BME280;14201;43.188;24.160;2023-02-15T08:09:00;101196.13;;;8.94;62.20
26531;BME280;14201;43.188;24.160;2023-02-15T08:11:30;101196.78;;;8.91;61.93
26531;BME280;14201;43.188;24.160;2023-02-15T08:14:04;101190.78;;;8.69;60.79
26531;BME280;14201;43.188;24.160;2023-02-15T08:16:46;101186.63;;;8.82;60.97
26531;BME280;14201;43.188;24.160;2023-02-15T08:19:18;101194.28;;;8.81;60.03
26531;BME280;14201;43.188;24.160;2023-02-15T08:21:47;101189.09;;;8.81;60.89
26531;BME280;14201;43.188;24.160;2023-02-15T08:24:15;101173.97;;;8.75;60.59
26531;BME280;14201;43.188;24.160;2023-02-15T08:26:41;101192.34;;;8.66;60.39
26531;BME280;14201;43.188;24.160;2023-02-15T08:29:08;101195.19;;;8.93;60.04
26531;BME280;14201;43.188;24.160;2023-02-15T08:31:35;101199.59;;;9.30;59.52
26531;BME280;14201;43.188;24.160;2023-02-15T08:34:03;101192.66;;;9.42;55.81
26531;BME280;14201;43.188;24.160;2023-02-15T08:36:29;101198.16;;;9.70;57.37
26531;BME280;14201;43.188;24.160;2023-02-15T08:39:02;101188.94;;;9.87;56.46
26531;BME280;14201;43.188;24.160;2023-02-15T08:41:30;101188.88;;;9.74;57.10
26531;BME280;14201;43.188;24.160;2023-02-15T08:43:59;101193.56;;;9.54;56.57
26531;BME280;14201;43.188;24.160;2023-02-15T08:46:27;101181.66;;;9.70;56.27
26531;BME280;14201;43.188;24.160;2023-02-15T08:48:54;101175.34;;;9.91;55.28
26531;BME280;14201;43.188;24.160;2023-02-15T08:51:22;101193.56;;;10.16;55.37
26531;BME280;14201;43.188;24.160;2023-02-15T08:53:52;101199.28;;;10.36;54.43
26531;BME280;14201;43.188;24.160;2023-02-15T08:56:24;101202.78;;;10.36;54.79
26531;BME280;14201;43.188;24.160;2023-02-15T08:58:52;101190.34;;;10.71;54.10
26531;BME280;14201;43.188;24.160;2023-02-15T09:01:20;101189.03;;;10.91;52.55
26531;BME280;14201;43.188;24.160;2023-02-15T09:03:48;101189.44;;;11.10;53.13
26531;BME280;14201;43.188;24.160;2023-02-15T09:06:16;101187.44;;;11.19;51.69
26531;BME280;14201;43.188;24.160;2023-02-15T09:08:42;101198.38;;;11.14;53.07
26531;BME280;14201;43.188;24.160;2023-02-15T09:11:19;101184.59;;;11.30;52.34
26531;BME280;14201;43.188;24.160;2023-02-15T09:13:52;101179.28;;;11.28;51.25
26531;BME280;14201;43.188;24.160;2023-02-15T09:16:18;101186.09;;;11.39;51.95
26531;BME280;14201;43.188;24.160;2023-02-15T09:18:44;101181.00;;;11.41;51.05
26531;BME280;14201;43.188;24.160;2023-02-15T09:21:24;101180.91;;;11.26;51.43
26531;BME280;14201;43.188;24.160;2023-02-15T09:23:51;101179.09;;;11.25;51.98
26531;BME280;14201;43.188;24.160;2023-02-15T09:26:19;101185.41;;;11.42;51.69
26531;BME280;14201;43.188;24.160;2023-02-15T09:28:46;101189.06;;;11.59;50.51
26531;BME280;14201;43.188;24.160;2023-02-15T09:31:15;101183.38;;;11.38;51.22
26531;BME280;14201;43.188;24.160;2023-02-15T09:33:42;101177.28;;;11.79;51.60
26531;BME280;14201;43.188;24.160;2023-02-15T09:38:50;101155.97;;;12.14;50.10
26531;BME280;14201;43.188;24.160;2023-02-15T09:49:21;101179.28;;;11.41;48.84
26531;BME280;14201;43.188;24.160;2023-02-15T09:52:26;101174.06;;;11.41;49.05
26531;BME280;14201;43.188;24.160;2023-02-15T10:05:43;101136.97;;;11.32;50.17
26531;BME280;14201;43.188;24.160;2023-02-15T10:11:06;101133.81;;;12.23;49.16
26531;BME280;14201;43.188;24.160;2023-02-15T10:22:11;101133.72;;;12.66;47.65
26531;BME280;14201;43.188;24.160;2023-02-15T10:24:48;101133.00;;;12.83;48.43
26531;BME280;14201;43.188;24.160;2023-02-15T10:27:21;101131.66;;;13.36;47.79
26531;BME280;14201;43.188;24.160;2023-02-15T10:30:06;101128.47;;;13.42;45.47
26531;BME280;14201;43.188;24.160;2023-02-15T10:32:41;101115.06;;;13.85;45.21
26531;BME280;14201;43.188;24.160;2023-02-15T10:46:54;101095.28;;;14.42;42.73
26531;BME280;14201;43.188;24.160;2023-02-15T10:49:49;101092.56;;;14.23;43.32
26531;BME280;14201;43.188;24.160;2023-02-15T11:01:51;101093.25;;;12.74;45.17
26531;BME280;14201;43.188;24.160;2023-02-15T11:06:42;101086.50;;;13.25;44.90
26531;BME280;14201;43.188;24.160;2023-02-15T11:09:14;101077.25;;;13.63;46.13
26531;BME280;14201;43.188;24.160;2023-02-15T11:11:45;101083.28;;;14.29;44.82
26531;BME280;14201;43.188;24.160;2023-02-15T11:17:09;101063.13;;;14.63;42.78
26531;BME280;14201;43.188;24.160;2023-02-15T11:22:40;101067.94;;;14.71;42.19
26531;BME280;14201;43.188;24.160;2023-02-15T11:25:17;101056.84;;;13.90;43.44
26531;BME280;14201;43.188;24.160;2023-02-15T11:27:46;101062.63;;;14.53;44.80
26531;BME280;14201;43.188;24.160;2023-02-15T11:30:15;101056.31;;;14.66;42.80
26531;BME280;14201;43.188;24.160;2023-02-15T11:32:44;101048.41;;;13.96;43.27
26531;BME280;14201;43.188;24.160;2023-02-15T11:37:58;101055.34;;;14.30;44.29
26531;BME280;14201;43.188;24.160;2023-02-15T11:40:35;101049.84;;;14.60;42.76
26531;BME280;14201;43.188;24.160;2023-02-15T11:43:10;101047.69;;;14.69;42.27
26531;BME280;14201;43.188;24.160;2023-02-15T11:45:41;101037.97;;;14.50;43.15
26531;BME280;14201;43.188;24.160;2023-02-15T11:48:13;101042.84;;;14.24;42.00
26531;BME280;14201;43.188;24.160;2023-02-15T11:50:40;101043.19;;;14.66;42.27
26531;BME280;14201;43.188;24.160;2023-02-15T11:53:12;101034.25;;;14.99;42.47
26531;BME280;14201;43.188;24.160;2023-02-15T11:55:39;101020.44;;;15.03;40.99
26531;BME280;14201;43.188;24.160;2023-02-15T11:58:39;101025.00;;;15.07;40.90
26531;BME280;14201;43.188;24.160;2023-02-15T12:06:48;101014.66;;;15.68;40.87
26531;BME280;14201;43.188;24.160;2023-02-15T12:09:24;101003.38;;;15.71;40.84
26531;BME280;14201;43.188;24.160;2023-02-15T12:11:52;100987.81;;;15.56;40.17
26531;BME280;14201;43.188;24.160;2023-02-15T12:14:18;101001.22;;;15.04;40.93
26531;BME280;14201;43.188;24.160;2023-02-15T12:16:49;101001.50;;;15.10;40.68
26531;BME280;14201;43.188;24.160;2023-02-15T12:19:21;101004.50;;;14.80;41.18
26531;BME280;14201;43.188;24.160;2023-02-15T12:21:51;101003.13;;;13.98;42.52
26531;BME280;14201;43.188;24.160;2023-02-15T12:24:25;100994.59;;;14.21;43.00
26531;BME280;14201;43.188;24.160;2023-02-15T12:27:13;100996.44;;;14.57;43.25
26531;BME280;14201;43.188;24.160;2023-02-15T12:29:41;100986.72;;;14.92;41.59
26531;BME280;14201;43.188;24.160;2023-02-15T12:32:21;100984.06;;;15.10;41.64
26531;BME280;14201;43.188;24.160;2023-02-15T12:34:48;100983.84;;;15.25;40.99
26531;BME280;14201;43.188;24.160;2023-02-15T12:37:27;100983.72;;;15.03;40.50
26531;BME280;14201;43.188;24.160;2023-02-15T12:39:58;100978.88;;;14.74;41.66
26531;BME280;14201;43.188;24.160;2023-02-15T12:42:25;100977.16;;;14.75;41.75
26531;BME280;14201;43.188;24.160;2023-02-15T12:44:58;100977.59;;;14.84;41.20
26531;BME280;14201;43.188;24.160;2023-02-15T12:47:25;100971.31;;;14.81;41.20
26531;BME280;14201;43.188;24.160;2023-02-15T12:52:44;100964.97;;;14.22;41.28
26531;BME280;14201;43.188;24.160;2023-02-15T12:55:19;100953.19;;;13.77;41.09
26531;BME280;14201;43.188;24.160;2023-02-15T12:57:45;100957.94;;;13.68;41.67
26531;BME280;14201;43.188;24.160;2023-02-15T13:02:47;100958.50;;;14.15;43.20
26531;BME280;14201;43.188;24.160;2023-02-15T13:36:16;100949.84;;;14.16;41.96
26531;BME280;14201;43.188;24.160;2023-02-15T13:39:10;100950.00;;;14.37;42.07
26531;BME280;14201;43.188;24.160;2023-02-15T13:41:50;100953.88;;;14.45;41.92
26531;BME280;14201;43.188;24.160;2023-02-15T13:44:36;100954.56;;;14.59;41.93
26531;BME280;14201;43.188;24.160;2023-02-15T13:50:23;100954.59;;;14.79;42.84
26531;BME280;14201;43.188;24.160;2023-02-15T13:53:33;100954.72;;;14.62;42.28
26531;BME280;14201;43.188;24.160;2023-02-15T13:58:58;100956.22;;;14.39;42.76
26531;BME280;14201;43.188;24.160;2023-02-15T14:01:57;100954.19;;;14.33;41.97
26531;BME280;14201;43.188;24.160;2023-02-15T14:16:00;100965.88;;;14.04;43.18
26531;BME280;14201;43.188;24.160;2023-02-15T14:18:48;100969.75;;;14.12;43.83
26531;BME280;14201;43.188;24.160;2023-02-15T14:26:49;100970.75;;;13.80;44.32
26531;BME280;14201;43.188;24.160;2023-02-15T14:32:35;100983.69;;;13.43;45.95
26531;BME280;14201;43.188;24.160;2023-02-15T14:35:09;100976.56;;;13.40;45.34
26531;BME280;14201;43.188;24.160;2023-02-15T14:37:58;100981.72;;;13.38;45.52
26531;BME280;14201;43.188;24.160;2023-02-15T14:40:54;100973.69;;;13.35;45.46
26531;BME280;14201;43.188;24.160;2023-02-15T14:49:12;100975.97;;;13.13;46.16
26531;BME280;14201;43.188;24.160;2023-02-15T14:54:06;100981.44;;;13.01;46.28
26531;BME280;14201;43.188;24.160;2023-02-15T14:56:33;100976.28;;;13.03;46.50
26531;BME280;14201;43.188;24.160;2023-02-15T14:59:08;100979.72;;;13.02;46.14
26531;BME280;14201;43.188;24.160;2023-02-15T15:01:38;100971.28;;;12.91;46.05
26531;BME280;14201;43.188;24.160;2023-02-15T15:04:07;100973.75;;;12.88;46.14
26531;BME280;14201;43.188;24.160;2023-02-15T15:06:36;100977.56;;;12.78;46.08
26531;BME280;14201;43.188;24.160;2023-02-15T15:09:25;100978.66;;;12.82;46.48
26531;BME280;14201;43.188;24.160;2023-02-15T15:11:54;100954.84;;;12.60;46.82
26531;BME280;14201;43.188;24.160;2023-02-15T15:16:59;100977.19;;;12.55;46.64
26531;BME280;14201;43.188;24.160;2023-02-15T15:22:30;100964.97;;;12.39;47.93
26531;BME280;14201;43.188;24.160;2023-02-15T15:25:02;100969.53;;;12.27;47.40
26531;BME280;14201;43.188;24.160;2023-02-15T15:27:44;100965.75;;;12.22;47.27
26531;BME280;14201;43.188;24.160;2023-02-15T15:33:05;100967.38;;;12.05;47.83
26531;BME280;14201;43.188;24.160;2023-02-15T15:48:49;100964.34;;;11.39;49.99
26531;BME280;14201;43.188;24.160;2023-02-15T15:51:24;100964.25;;;11.23;50.44
26531;BME280;14201;43.188;24.160;2023-02-15T15:53:53;100961.88;;;11.13;50.43
26531;BME280;14201;43.188;24.160;2023-02-15T15:56:24;100961.47;;;11.07;50.42
26531;BME280;14201;43.188;24.160;2023-02-15T15:58:58;100963.44;;;10.96;50.27
26531;BME280;14201;43.188;24.160;2023-02-15T16:01:28;100962.66;;;10.83;49.82
26531;BME280;14201;43.188;24.160;2023-02-15T16:03:57;100961.00;;;10.71;50.41
26531;BME280;14201;43.188;24.160;2023-02-15T16:08:53;100968.56;;;10.39;50.84
26531;BME280;14201;43.188;24.160;2023-02-15T16:11:24;100960.38;;;10.33;50.95
26531;BME280;14201;43.188;24.160;2023-02-15T16:13:50;100967.25;;;10.33;51.30
26531;BME280;14201;43.188;24.160;2023-02-15T16:16:21;100962.63;;;10.15;51.28
26531;BME280;14201;43.188;24.160;2023-02-15T16:18:48;100967.66;;;9.99;52.20
26531;BME280;14201;43.188;24.160;2023-02-15T16:21:20;100978.22;;;9.75;51.61
26531;BME280;14201;43.188;24.160;2023-02-15T16:24:05;100946.34;;;9.53;52.84
26531;BME280;14201;43.188;24.160;2023-02-15T16:29:13;100985.88;;;9.60;53.10
26531;BME280;14201;43.188;24.160;2023-02-15T16:31:39;100988.22;;;9.44;53.73
26531;BME280;14201;43.188;24.160;2023-02-15T16:34:07;100985.31;;;9.39;53.92
26531;BME280;14201;43.188;24.160;2023-02-15T16:36:34;100985.50;;;9.29;53.71
26531;BME280;14201;43.188;24.160;2023-02-15T16:39:11;100992.06;;;9.24;53.79
26531;BME280;14201;43.188;24.160;2023-02-15T16:41:41;100991.00;;;9.09;54.56
26531;BME280;14201;43.188;24.160;2023-02-15T16:44:18;100996.50;;;8.88;54.62
26531;BME280;14201;43.188;24.160;2023-02-15T16:46:46;100996.75;;;8.67;54.87
26531;BME280;14201;43.188;24.160;2023-02-15T16:49:19;100995.53;;;8.51;55.09
26531;BME280;14201;43.188;24.160;2023-02-15T16:51:53;100995.78;;;8.42;55.80
26531;BME280;14201;43.188;24.160;2023-02-15T16:54:21;101005.78;;;8.25;56.58